Time;durP1;ratioP1;P1;durP2;ratioP2;P2;SDS_P1;SDS_P2;PMS_P1;PMS_P2;Temp;Humidity;BMP_temperature;BMP_pressure;BME280_temperature;BME280_humidity;BME280_pressure;Samples;Min_cycle;Max_cycle;Signal;HPM_P1;HPM_P2
2022/03/08 00:01:02;;;;;;;6.53;6.07;;;-0.60;79.20;;;;;;5053284;28;20178;-65
2022/03/08 00:03:28;;;;;;;10.27;5.85;;;-0.60;79.30;;;;;;5052910;28;20192;-65
2022/03/08 00:05:54;;;;;;;7.40;5.13;;;-0.60;79.50;;;;;;5053221;28;20205;-67
2022/03/08 00:08:20;;;;;;;4.72;4.32;;;-0.60;79.40;;;;;;5053629;28;20173;-65
2022/03/08 00:10:46;;;;;;;6.80;6.20;;;-0.60;79.20;;;;;;5053193;28;20170;-65
2022/03/08 00:13:11;;;;;;;14.93;6.83;;;-0.60;79.40;;;;;;5052438;28;20898;-66
2022/03/08 00:15:37;;;;;;;6.57;5.97;;;-0.60;79.30;;;;;;5053147;28;20513;-66
2022/03/08 00:18:03;;;;;;;4.93;3.93;;;-0.60;79.00;;;;;;5053200;28;20180;-66
2022/03/08 00:20:30;;;;;;;6.43;4.30;;;-0.60;79.10;;;;;;5035096;28;20457;-66
2022/03/08 00:22:57;;;;;;;8.18;4.90;;;-0.60;79.20;;;;;;5053116;28;20408;-66
2022/03/08 00:25:23;;;;;;;7.03;4.75;;;-0.70;79.20;;;;;;5052603;28;20686;-67
2022/03/08 00:27:49;;;;;;;6.68;4.72;;;-0.70;79.50;;;;;;5053348;28;20560;-64
2022/03/08 00:30:17;;;;;;;13.55;6.95;;;-0.80;79.70;;;;;;5053268;28;20165;-65
2022/03/08 00:32:43;;;;;;;13.43;4.45;;;-0.80;80.50;;;;;;5052972;28;20170;-66
2022/03/08 00:35:11;;;;;;;6.33;3.60;;;-0.80;79.70;;;;;;5052823;28;20717;-65
2022/03/08 00:37:37;;;;;;;11.40;6.50;;;-0.90;80.10;;;;;;5052927;28;20420;-65
2022/03/08 00:40:05;;;;;;;10.02;4.68;;;-1.00;80.70;;;;;;5034882;28;20693;-65
2022/03/08 00:42:30;;;;;;;7.93;5.50;;;-1.10;81.30;;;;;;5052570;28;20185;-66
2022/03/08 00:44:56;;;;;;;6.70;6.10;;;-1.20;81.60;;;;;;5052574;28;20204;-66
2022/03/08 00:47:22;;;;;;;10.93;3.63;;;-1.20;82.10;;;;;;5052975;28;20411;-67
2022/03/08 00:49:48;;;;;;;7.10;5.50;;;-1.30;82.10;;;;;;5052969;28;20244;-66
2022/03/08 00:52:13;;;;;;;5.93;5.43;;;-1.30;82.40;;;;;;5051557;28;20253;-66
2022/03/08 00:54:39;;;;;;;4.57;3.57;;;-1.40;83.60;;;;;;5051751;28;20663;-66
2022/03/08 00:57:05;;;;;;;5.00;4.60;;;-1.50;85.40;;;;;;5053195;28;20181;-66
2022/03/08 00:59:31;;;;;;;4.83;3.07;;;-1.50;85.70;;;;;;5035170;28;20662;-65
2022/03/08 01:01:56;;;;;;;6.27;4.43;;;-1.50;85.60;;;;;;5053004;28;20400;-65
2022/03/08 01:04:22;;;;;;;3.90;3.53;;;-1.50;85.30;;;;;;5052242;28;20455;-65
2022/03/08 01:07:07;;;;;;;5.53;4.87;;;-1.50;85.10;;;;;;5052794;28;20252;-65
2022/03/08 01:09:33;;;;;;;7.05;6.43;;;-1.50;85.00;;;;;;5052867;28;20166;-65
2022/03/08 01:11:59;;;;;;;9.55;5.05;;;-1.60;85.40;;;;;;5053001;28;20533;-66
2022/03/08 01:14:25;;;;;;;10.97;6.33;;;-1.60;85.60;;;;;;5052351;28;20185;-65
2022/03/08 01:16:50;;;;;;;10.70;7.73;;;-1.60;85.80;;;;;;5034865;28;20170;-66
2022/03/08 01:19:16;;;;;;;7.93;5.77;;;-1.70;85.90;;;;;;5052861;28;20404;-65
2022/03/08 01:21:42;;;;;;;4.73;4.40;;;-1.80;87.20;;;;;;5052942;28;20241;-65
2022/03/08 01:24:07;;;;;;;7.50;6.90;;;-1.80;87.90;;;;;;5053883;28;20212;-65
2022/03/08 01:26:33;;;;;;;5.90;5.40;;;-1.90;88.80;;;;;;5056776;28;20166;-65
2022/03/08 01:28:59;;;;;;;6.30;5.70;;;-1.90;89.40;;;;;;5056466;28;20173;-66
2022/03/08 01:31:25;;;;;;;7.53;4.80;;;-2.00;90.00;;;;;;5056529;28;20817;-66
2022/03/08 01:33:51;;;;;;;5.97;5.40;;;-2.10;90.00;;;;;;5055737;28;20256;-66
2022/03/08 01:36:17;;;;;;;4.53;3.47;;;-2.10;90.10;;;;;;5038387;28;20232;-66
2022/03/08 01:38:43;;;;;;;5.05;3.85;;;-2.10;90.40;;;;;;5056501;28;20177;-66
2022/03/08 01:41:09;;;;;;;4.93;4.40;;;-2.20;90.40;;;;;;5056288;28;20166;-66
2022/03/08 01:43:34;;;;;;;11.73;6.83;;;-2.20;90.90;;;;;;5055747;28;20300;-65
2022/03/08 01:46:00;;;;;;;10.70;5.47;;;-2.30;91.10;;;;;;5055874;28;20306;-66
2022/03/08 01:48:26;;;;;;;3.83;3.53;;;-2.30;91.10;;;;;;5056071;28;20459;-65
2022/03/08 01:50:52;;;;;;;4.70;3.53;;;-2.30;91.20;;;;;;5056021;28;20675;-65
2022/03/08 01:53:17;;;;;;;8.00;7.30;;;-2.40;91.20;;;;;;5055508;28;20169;-65
2022/03/08 01:55:43;;;;;;;4.40;4.00;;;-2.40;91.50;;;;;;5055683;28;20436;-65
2022/03/08 01:58:09;;;;;;;5.50;5.00;;;-2.30;92.10;;;;;;5055950;28;20165;-66
2022/03/08 02:00:34;;;;;;;6.40;5.80;;;-2.40;92.20;;;;;;5055941;28;20173;-66
2022/03/08 02:03:00;;;;;;;4.37;4.07;;;-2.40;92.10;;;;;;5055674;28;20215;-64
2022/03/08 02:05:28;;;;;;;6.50;4.30;;;-2.40;92.20;;;;;;5055229;28;20212;-64
2022/03/08 02:07:54;;;;;;;5.43;4.85;;;-2.40;92.50;;;;;;5055949;28;20754;-65
2022/03/08 02:10:20;;;;;;;9.20;4.68;;;-2.40;92.50;;;;;;5055623;28;20166;-65
2022/03/08 02:12:47;;;;;;;6.60;4.05;;;-2.50;92.50;;;;;;5055558;28;20169;-65
2022/03/08 02:15:17;;;;;;;4.28;3.95;;;-2.50;92.60;;;;;;5055130;28;20667;-64
2022/03/08 02:17:43;;;;;;;10.65;7.47;;;-2.50;92.70;;;;;;5055467;28;20178;-65
2022/03/08 02:20:10;;;;;;;7.43;4.35;;;-2.50;92.80;;;;;;5055418;28;20630;-65
2022/03/08 02:22:36;;;;;;;8.95;5.85;;;-2.50;92.90;;;;;;5055553;28;20170;-65
2022/03/08 02:25:02;;;;;;;4.53;4.20;;;-2.50;93.00;;;;;;5054704;28;20197;-65
2022/03/08 02:27:28;;;;;;;3.67;3.22;;;-2.60;93.10;;;;;;5055352;28;20202;-65
2022/03/08 02:29:54;;;;;;;5.60;4.90;;;-2.60;93.30;;;;;;5055204;28;20632;-65
2022/03/08 02:32:19;;;;;;;6.90;6.27;;;-2.60;93.50;;;;;;5055374;28;20170;-66
2022/03/08 02:34:45;;;;;;;6.67;4.80;;;-2.60;93.80;;;;;;5054324;28;20713;-65
2022/03/08 02:37:12;;;;;;;4.47;3.70;;;-2.70;94.50;;;;;;5054950;28;20169;-65
2022/03/08 02:39:39;;;;;;;7.80;5.50;;;-2.60;94.60;;;;;;5055117;28;20231;-65
2022/03/08 02:42:05;;;;;;;5.57;5.18;;;-2.60;94.40;;;;;;5054942;28;20169;-65
2022/03/08 02:44:32;;;;;;;4.40;3.28;;;-2.60;94.40;;;;;;5054371;28;20189;-65
2022/03/08 02:47:02;;;;;;;6.20;5.10;;;-2.60;94.60;;;;;;5054958;28;20178;-65
2022/03/08 02:49:27;;;;;;;4.20;3.80;;;-2.60;94.40;;;;;;5054926;28;20177;-65
2022/03/08 02:51:55;;;;;;;9.77;6.63;;;-2.60;94.30;;;;;;5054922;28;20172;-65
2022/03/08 02:54:21;;;;;;;3.17;2.92;;;-2.60;94.30;;;;;;5054286;28;20182;-67
2022/03/08 02:56:46;;;;;;;6.70;5.60;;;-2.60;94.60;;;;;;5054783;28;20176;-66
2022/03/08 02:59:19;;;;;;;6.40;4.40;;;-2.60;94.70;;;;;;5054690;28;20172;-65
2022/03/08 03:01:44;;;;;;;5.10;3.83;;;-2.70;94.60;;;;;;5054556;28;20161;-65
2022/03/08 03:04:10;;;;;;;5.93;4.57;;;-2.70;94.60;;;;;;5053876;28;20234;-65
2022/03/08 03:06:35;;;;;;;4.13;3.93;;;-2.70;94.90;;;;;;5054702;28;20670;-65
2022/03/08 03:09:02;;;;;;;4.63;2.70;;;-2.60;95.10;;;;;;5054567;28;20169;-65
2022/03/08 03:11:27;;;;;;;4.82;3.15;;;-2.60;95.00;;;;;;5054345;28;20165;-66
2022/03/08 03:13:53;;;;;;;7.10;4.70;;;-2.60;94.90;;;;;;5053966;28;20231;-65
2022/03/08 03:16:19;;;;;;;2.93;2.73;;;-2.50;94.90;;;;;;5054341;28;20173;-66
2022/03/08 03:18:44;;;;;;;2.73;2.43;;;-2.30;94.50;;;;;;5054302;28;20406;-66
2022/03/08 03:21:10;;;;;;;2.43;2.33;;;-2.20;93.60;;;;;;5036292;28;20619;-65
2022/03/08 03:23:36;;;;;;;3.10;1.73;;;-2.10;92.90;;;;;;5053841;28;20214;-65
2022/03/08 03:26:01;;;;;;;4.93;4.53;;;-2.00;92.50;;;;;;5054032;28;20239;-65
2022/03/08 03:28:27;;;;;;;3.80;2.07;;;-1.90;91.90;;;;;;5054186;28;20197;-65
2022/03/08 03:30:53;;;;;;;1.53;1.43;;;-1.90;91.60;;;;;;5054156;28;20227;-65
2022/03/08 03:33:18;;;;;;;7.93;4.77;;;-1.80;91.30;;;;;;5053681;28;20166;-65
2022/03/08 03:35:44;;;;;;;4.60;4.20;;;-1.80;91.10;;;;;;5053787;28;20195;-66
2022/03/08 03:38:10;;;;;;;4.30;2.90;;;-1.80;91.00;;;;;;5053864;28;20252;-65
2022/03/08 03:40:35;;;;;;;4.03;3.77;;;-1.70;90.90;;;;;;5053841;28;20557;-66
2022/03/08 03:43:01;;;;;;;3.87;3.57;;;-1.80;90.80;;;;;;5053650;28;20436;-66
2022/03/08 03:45:27;;;;;;;2.93;2.73;;;-1.70;90.80;;;;;;5053433;28;20549;-65
2022/03/08 03:47:52;;;;;;;3.17;2.73;;;-1.70;90.60;;;;;;5052932;28;20188;-65
2022/03/08 03:50:18;;;;;;;2.97;2.67;;;-1.70;90.70;;;;;;5053874;28;20166;-66
2022/03/08 03:52:43;;;;;;;6.27;4.20;;;-1.70;90.90;;;;;;5053533;28;20196;-66
2022/03/08 03:55:09;;;;;;;2.80;2.70;;;-1.70;90.90;;;;;;5053366;28;20525;-66
2022/03/08 03:57:35;;;;;;;5.00;3.00;;;-1.70;91.00;;;;;;5053702;28;20177;-66
2022/03/08 04:00:00;;;;;;;3.23;3.03;;;-1.80;90.90;;;;;;5053661;28;20501;-66
2022/03/08 04:02:26;;;;;;;4.27;3.87;;;-1.80;91.00;;;;;;5053317;28;20528;-65
2022/03/08 04:04:51;;;;;;;4.83;3.73;;;-1.80;91.20;;;;;;5052836;28;20240;-66
2022/03/08 04:07:17;;;;;;;6.83;4.40;;;-1.80;91.30;;;;;;5053366;28;20705;-66
2022/03/08 04:09:43;;;;;;;31.90;4.10;;;-1.80;91.40;;;;;;5053452;28;20655;-65
2022/03/08 04:12:09;;;;;;;3.50;3.20;;;-1.70;91.60;;;;;;5053352;28;20169;-65
2022/03/08 04:14:34;;;;;;;3.80;3.47;;;-1.80;91.70;;;;;;5052974;28;20192;-65
2022/03/08 04:17:02;;;;;;;5.97;5.47;;;-1.80;91.80;;;;;;5053385;28;20414;-65
2022/03/08 04:19:27;;;;;;;6.90;3.90;;;-1.90;92.00;;;;;;5053422;28;20170;-65
2022/03/08 04:21:53;;;;;;;5.90;5.10;;;-1.90;92.20;;;;;;5053400;28;20173;-65
2022/03/08 04:24:19;;;;;;;4.85;4.50;;;-1.90;92.20;;;;;;5052702;28;20647;-66
2022/03/08 04:26:45;;;;;;;7.17;4.53;;;-1.90;92.10;;;;;;5053293;28;20219;-65
2022/03/08 04:29:10;;;;;;;4.80;3.20;;;-1.90;91.80;;;;;;5053272;28;20647;-65
2022/03/08 04:31:36;;;;;;;4.63;4.30;;;-1.90;91.80;;;;;;5053293;28;20166;-65
2022/03/08 04:34:01;;;;;;;2.50;2.40;;;-2.00;91.90;;;;;;5052714;28;20169;-65
2022/03/08 04:36:27;;;;;;;6.10;2.20;;;-2.00;91.90;;;;;;5053027;28;20279;-66
2022/03/08 04:38:53;;;;;;;4.33;3.03;;;-2.00;91.90;;;;;;5053239;28;20166;-65
2022/03/08 04:41:19;;;;;;;2.30;2.20;;;-2.10;91.90;;;;;;5053296;28;20201;-65
2022/03/08 04:43:46;;;;;;;3.37;3.27;;;-2.10;91.90;;;;;;5052650;28;20240;-65
2022/03/08 04:46:12;;;;;;;3.33;3.10;;;-2.20;92.00;;;;;;5052813;28;20455;-65
2022/03/08 04:48:37;;;;;;;3.37;3.13;;;-2.20;92.00;;;;;;5053118;28;20181;-65
2022/03/08 04:51:03;;;;;;;4.77;4.37;;;-2.30;91.80;;;;;;5052944;28;20487;-65
2022/03/08 04:53:28;;;;;;;3.27;3.00;;;-2.30;91.80;;;;;;5052580;28;20176;-66
2022/03/08 04:55:54;;;;;;;2.53;2.33;;;-2.40;91.80;;;;;;5052904;28;20197;-64
2022/03/08 04:58:20;;;;;;;7.50;4.50;;;-2.40;92.00;;;;;;5053438;28;20173;-66
2022/03/08 05:00:45;;;;;;;6.37;4.60;;;-2.40;92.30;;;;;;5038879;28;20247;-66
2022/03/08 05:03:11;;;;;;;2.50;2.30;;;-2.50;92.30;;;;;;5056696;28;20192;-66
2022/03/08 05:05:38;;;;;;;6.80;5.80;;;-2.60;92.40;;;;;;5056816;28;20208;-66
2022/03/08 05:08:05;;;;;;;4.25;3.85;;;-2.50;92.60;;;;;;5056659;28;20183;-65
2022/03/08 05:10:31;;;;;;;3.45;3.22;;;-2.60;92.50;;;;;;5056612;28;20165;-65
2022/03/08 05:12:56;;;;;;;2.67;2.47;;;-2.60;92.50;;;;;;5056585;28;20169;-65
2022/03/08 05:15:22;;;;;;;4.47;4.10;;;-2.60;92.60;;;;;;5056251;28;20254;-65
2022/03/08 05:17:47;;;;;;;3.13;2.93;;;-2.70;92.70;;;;;;5038597;28;20185;-65
2022/03/08 05:20:13;;;;;;;2.70;2.60;;;-2.70;93.20;;;;;;5056565;28;20177;-65
2022/03/08 05:22:39;;;;;;;2.50;2.37;;;-2.70;93.00;;;;;;5056359;28;20493;-65
2022/03/08 05:25:05;;;;;;;3.47;3.13;;;-2.70;93.10;;;;;;5055834;28;20208;-65
2022/03/08 05:27:31;;;;;;;2.95;2.75;;;-2.70;93.30;;;;;;5056368;28;20174;-65
2022/03/08 05:29:57;;;;;;;4.00;3.63;;;-2.70;93.40;;;;;;5056210;28;20192;-65
2022/03/08 05:32:22;;;;;;;2.87;2.60;;;-2.60;93.20;;;;;;5056145;28;20248;-65
2022/03/08 05:34:48;;;;;;;3.53;3.23;;;-2.50;93.00;;;;;;5037731;28;20592;-64
2022/03/08 05:37:14;;;;;;;1.77;1.67;;;-2.50;92.90;;;;;;5056105;28;20166;-65
2022/03/08 05:39:39;;;;;;;4.03;3.67;;;-2.40;92.80;;;;;;5056379;28;20197;-65
2022/03/08 05:42:05;;;;;;;4.67;3.57;;;-2.30;92.60;;;;;;5056027;28;20654;-66
2022/03/08 05:44:31;;;;;;;2.70;2.60;;;-2.20;92.30;;;;;;5037592;28;20199;-65
2022/03/08 05:46:57;;;;;;;4.87;4.53;;;-2.10;92.00;;;;;;5056102;28;20483;-64
2022/03/08 05:49:25;;;;;;;3.33;3.20;;;-2.00;91.70;;;;;;5037870;28;20419;-66
2022/03/08 05:51:50;;;;;;;3.47;3.17;;;-2.00;91.30;;;;;;5055809;28;20176;-64
2022/03/08 05:54:16;;;;;;;2.00;1.90;;;-1.90;91.00;;;;;;5054807;28;20197;-65
2022/03/08 05:56:42;;;;;;;6.03;3.07;;;-1.80;90.70;;;;;;5055787;28;20196;-65
2022/03/08 05:59:08;;;;;;;4.93;4.40;;;-1.60;90.40;;;;;;5055695;28;20165;-65
2022/03/08 06:01:34;;;;;;;2.73;2.60;;;-1.60;90.00;;;;;;5055696;28;20185;-66
2022/03/08 06:03:59;;;;;;;2.50;2.30;;;-1.40;89.50;;;;;;5054982;28;20185;-65
2022/03/08 06:06:25;;;;;;;2.00;1.90;;;-1.50;88.80;;;;;;5055136;28;20291;-64
2022/03/08 06:08:51;;;;;;;2.63;2.43;;;-1.40;88.90;;;;;;5055296;28;20299;-63
2022/03/08 06:11:17;;;;;;;2.93;2.70;;;-1.30;88.50;;;;;;5054437;28;20178;-64
2022/03/08 06:13:42;;;;;;;1.67;1.57;;;-1.10;88.10;;;;;;5055256;28;20404;-64
2022/03/08 06:16:08;;;;;;;1.80;1.67;;;-0.90;87.90;;;;;;5055210;28;20473;-65
2022/03/08 06:18:34;;;;;;;32.93;3.30;;;-0.70;88.00;;;;;;5055330;28;20181;-64
2022/03/08 06:20:59;;;;;;;3.40;3.20;;;-0.50;87.70;;;;;;5055135;28;20174;-64
2022/03/08 06:23:25;;;;;;;3.67;3.37;;;-0.20;87.60;;;;;;5054761;28;20208;-65
2022/03/08 06:25:50;;;;;;;9.27;5.43;;;0.20;86.60;;;;;;5055024;28;20201;-65
2022/03/08 06:28:16;;;;;;;4.60;3.87;;;0.50;85.70;;;;;;5055126;28;20172;-65
2022/03/08 06:30:42;;;;;;;7.77;5.63;;;0.80;83.70;;;;;;5055048;28;20162;-65
2022/03/08 06:33:07;;;;;;;3.73;3.43;;;1.10;82.00;;;;;;5054591;28;20248;-65
2022/03/08 06:35:33;;;;;;;4.23;3.80;;;1.40;81.20;;;;;;5054741;28;20246;-64
2022/03/08 06:37:59;;;;;;;9.23;4.83;;;1.80;79.20;;;;;;5054867;28;20161;-65
2022/03/08 06:40:25;;;;;;;5.27;4.30;;;2.20;77.00;;;;;;5055014;28;20400;-64
2022/03/08 06:42:51;;;;;;;4.87;3.70;;;2.60;76.20;;;;;;5054914;28;20396;-65
2022/03/08 06:45:16;;;;;;;5.70;4.00;;;3.10;76.20;;;;;;5054341;28;20197;-64
2022/03/08 06:47:42;;;;;;;5.70;4.00;;;3.50;73.80;;;;;;5054830;28;20161;-65
2022/03/08 06:50:08;;;;;;;7.10;4.40;;;4.00;72.20;;;;;;5054809;28;20223;-65
2022/03/08 06:52:34;;;;;;;6.18;5.40;;;4.30;69.60;;;;;;5054631;28;20177;-66
2022/03/08 06:55:00;;;;;;;7.80;4.50;;;4.70;68.20;;;;;;5054169;28;20189;-65
2022/03/08 06:57:26;;;;;;;8.67;4.93;;;4.90;67.20;;;;;;5054515;28;20420;-64
2022/03/08 06:59:51;;;;;;;6.87;5.70;;;5.10;67.40;;;;;;5054527;28;20166;-64
2022/03/08 07:02:17;;;;;;;8.07;4.77;;;5.50;65.80;;;;;;5054324;28;20229;-65
2022/03/08 07:04:43;;;;;;;7.30;5.07;;;5.90;65.10;;;;;;5053760;28;20215;-62
2022/03/08 07:07:09;;;;;;;4.40;3.73;;;6.30;63.50;;;;;;5054304;28;20172;-63
2022/03/08 07:09:34;;;;;;;5.80;4.83;;;6.80;63.20;;;;;;5054420;28;20256;-62
2022/03/08 07:12:00;;;;;;;5.93;3.93;;;7.30;62.00;;;;;;5054221;28;20176;-64
2022/03/08 07:14:26;;;;;;;5.97;4.45;;;7.90;60.00;;;;;;5053722;28;20197;-63
2022/03/08 07:16:52;;;;;;;6.03;4.27;;;8.40;59.20;;;;;;5053945;28;20173;-63
2022/03/08 07:19:18;;;;;;;5.43;4.90;;;8.80;58.40;;;;;;5054205;28;20227;-62
2022/03/08 07:21:45;;;;;;;5.80;4.77;;;9.20;58.00;;;;;;5053869;28;20632;-62
2022/03/08 07:24:12;;;;;;;7.10;5.70;;;9.60;56.80;;;;;;5053589;28;20439;-62
2022/03/08 07:26:37;;;;;;;7.30;6.47;;;9.90;55.50;;;;;;5054113;28;20264;-62
2022/03/08 07:29:03;;;;;;;5.20;4.33;;;10.20;55.00;;;;;;5054215;28;20904;-62
2022/03/08 07:31:29;;;;;;;7.73;5.77;;;10.70;53.80;;;;;;5054053;28;20173;-63
2022/03/08 07:33:55;;;;;;;5.10;4.53;;;11.10;52.80;;;;;;5053504;28;20612;-63
2022/03/08 07:36:21;;;;;;;5.67;5.13;;;11.40;52.80;;;;;;5053502;28;20488;-62
2022/03/08 07:38:47;;;;;;;5.17;4.77;;;11.70;51.60;;;;;;5050503;28;20433;-63
2022/03/08 07:41:13;;;;;;;5.57;5.07;;;11.90;51.80;;;;;;5053805;28;20418;-62
2022/03/08 07:43:39;;;;;;;5.90;5.30;;;12.10;51.00;;;;;;5053331;28;20443;-63
2022/03/08 07:46:07;;;;;;;5.67;5.07;;;12.30;51.60;;;;;;5053470;28;20217;-62
2022/03/08 07:48:34;;;;;;;8.77;6.27;;;12.70;50.80;;;;;;5053519;28;20426;-63
2022/03/08 07:51:00;;;;;;;5.90;5.33;;;12.90;50.40;;;;;;5053404;28;20420;-62
2022/03/08 07:53:26;;;;;;;5.27;4.77;;;13.30;50.10;;;;;;5053193;28;20469;-62
2022/03/08 07:55:52;;;;;;;9.07;5.47;;;13.30;49.40;;;;;;5054450;28;20426;-62
2022/03/08 07:58:17;;;;;;;6.03;5.00;;;13.50;48.60;;;;;;5054350;28;20469;-62
2022/03/08 08:00:43;;;;;;;5.90;5.30;;;13.40;48.40;;;;;;5054128;28;20173;-62
2022/03/08 08:03:09;;;;;;;8.37;5.70;;;13.40;48.10;;;;;;5053523;28;20627;-63
2022/03/08 08:05:35;;;;;;;5.60;4.77;;;13.50;49.10;;;;;;5054005;28;20556;-63
2022/03/08 08:08:02;;;;;;;5.57;5.07;;;13.70;47.90;;;;;;5054041;28;20197;-62
2022/03/08 08:10:29;;;;;;;7.47;6.00;;;14.00;48.00;;;;;;5053622;28;20404;-62
2022/03/08 08:12:54;;;;;;;6.80;4.90;;;14.40;48.20;;;;;;5053422;28;20737;-66
2022/03/08 08:15:20;;;;;;;5.60;5.10;;;14.80;47.50;;;;;;5053107;28;20450;-67
2022/03/08 08:17:46;;;;;;;7.03;5.30;;;15.10;47.30;;;;;;5053240;28;20256;-66
2022/03/08 08:20:12;;;;;;;6.33;4.30;;;15.20;47.00;;;;;;5035334;28;20264;-67
2022/03/08 08:22:38;;;;;;;6.00;5.40;;;15.30;46.60;;;;;;5053372;28;20285;-67
2022/03/08 08:25:08;;;;;;;5.60;5.10;;;15.50;47.00;;;;;;5034882;28;20463;-67
2022/03/08 08:27:34;;;;;;;4.93;4.53;;;15.40;46.20;;;;;;5052947;28;20744;-67
2022/03/08 08:29:59;;;;;;;5.60;5.10;;;15.50;46.80;;;;;;5053125;28;20401;-67
2022/03/08 08:32:25;;;;;;;7.10;6.23;;;15.70;46.60;;;;;;5035165;28;20469;-67
2022/03/08 08:34:51;;;;;;;5.73;5.23;;;15.50;46.60;;;;;;5058580;28;20239;-67
2022/03/08 08:37:16;;;;;;;4.97;4.50;;;15.30;46.50;;;;;;5059718;28;20203;-67
2022/03/08 08:39:42;;;;;;;5.63;5.03;;;15.30;46.60;;;;;;5059605;28;20588;-66
2022/03/08 08:42:08;;;;;;;7.37;4.63;;;15.60;46.40;;;;;;5059463;28;20256;-67
2022/03/08 08:44:34;;;;;;;5.50;5.00;;;15.80;46.70;;;;;;5059046;28;20195;-67
2022/03/08 08:47:00;;;;;;;5.30;4.63;;;15.80;46.00;;;;;;5059367;28;20803;-67
2022/03/08 08:49:25;;;;;;;5.37;4.87;;;16.10;45.70;;;;;;5059550;28;20397;-66
2022/03/08 08:51:51;;;;;;;5.33;4.83;;;16.30;45.50;;;;;;5059702;28;20173;-67
2022/03/08 08:54:18;;;;;;;5.13;4.63;;;16.50;45.20;;;;;;5058975;28;20681;-67
2022/03/08 08:56:44;;;;;;;5.60;5.00;;;16.60;45.40;;;;;;5059102;28;20417;-68
2022/03/08 08:59:10;;;;;;;4.50;4.10;;;17.00;45.10;;;;;;5041392;28;20427;-67
2022/03/08 09:01:36;;;;;;;5.20;4.70;;;17.40;44.90;;;;;;5059098;28;20412;-67
2022/03/08 09:04:02;;;;;;;4.80;4.40;;;18.00;44.60;;;;;;5058609;28;20538;-67
2022/03/08 09:06:27;;;;;;;4.70;4.30;;;18.10;43.70;;;;;;5059319;28;20547;-67
2022/03/08 09:08:56;;;;;;;3.80;3.50;;;18.40;43.00;;;;;;5059296;28;20404;-66
2022/03/08 09:11:22;;;;;;;4.43;4.03;;;18.10;42.50;;;;;;5059353;28;20164;-66
2022/03/08 09:13:48;;;;;;;4.63;4.23;;;17.70;42.00;;;;;;5058877;28;20397;-67
2022/03/08 09:16:15;;;;;;;4.10;3.70;;;17.00;42.30;;;;;;5059173;28;20432;-65
2022/03/08 09:18:41;;;;;;;4.07;3.77;;;16.60;42.50;;;;;;5059039;28;20171;-65
2022/03/08 09:21:07;;;;;;;3.80;3.50;;;16.20;42.90;;;;;;5041112;28;20933;-67
2022/03/08 09:23:33;;;;;;;3.53;3.27;;;16.10;43.20;;;;;;5058877;28;20386;-66
2022/03/08 09:25:59;;;;;;;3.23;2.93;;;15.90;43.10;;;;;;5058904;28;20254;-66
2022/03/08 09:28:24;;;;;;;4.37;4.07;;;15.70;43.20;;;;;;5059079;28;20400;-66
2022/03/08 09:30:50;;;;;;;4.27;3.87;;;15.50;43.40;;;;;;5059191;28;20203;-64
2022/03/08 09:33:15;;;;;;;3.50;3.20;;;15.30;44.00;;;;;;5058625;28;20170;-66
2022/03/08 09:35:41;;;;;;;2.93;2.73;;;15.30;44.00;;;;;;5058990;28;20185;-65
2022/03/08 09:38:07;;;;;;;3.70;3.37;;;15.50;43.00;;;;;;5059124;28;20259;-65
2022/03/08 09:40:35;;;;;;;3.70;3.40;;;15.40;43.30;;;;;;5058593;28;20169;-65
2022/03/08 09:43:00;;;;;;;3.47;3.27;;;15.40;43.10;;;;;;5058728;28;20164;-64
2022/03/08 09:45:26;;;;;;;4.53;3.67;;;15.50;43.10;;;;;;5056429;28;20478;-66
2022/03/08 09:47:53;;;;;;;3.40;3.10;;;15.30;43.00;;;;;;5056060;28;20231;-65
2022/03/08 09:50:18;;;;;;;4.93;3.40;;;15.30;43.10;;;;;;5055541;28;20187;-66
2022/03/08 09:52:45;;;;;;;2.87;2.67;;;15.40;43.00;;;;;;5055626;28;20501;-66
2022/03/08 09:55:14;;;;;;;6.17;3.37;;;15.30;42.80;;;;;;5055059;28;20186;-67
2022/03/08 09:57:41;;;;;;;3.90;2.90;;;15.30;43.20;;;;;;5056019;28;20415;-66
2022/03/08 10:00:09;;;;;;;3.00;2.80;;;15.20;42.90;;;;;;5055656;28;20404;-66
2022/03/08 10:02:55;;;;;;;3.50;3.27;;;15.20;42.10;;;;;;5055596;28;20436;-66
2022/03/08 10:05:29;;;;;;;2.83;2.63;;;15.00;42.60;;;;;;5055040;28;20459;-66
2022/03/08 10:08:19;;;;;;;3.30;3.00;;;15.00;42.10;;;;;;5055195;28;20435;-66
2022/03/08 10:11:01;;;;;;;3.37;3.07;;;14.70;42.00;;;;;;5055271;28;20509;-65
2022/03/08 10:13:38;;;;;;;3.50;3.20;;;14.60;42.50;;;;;;5055176;28;20417;-65
2022/03/08 10:16:07;;;;;;;3.40;2.80;;;14.60;42.40;;;;;;5055660;28;20440;-65
2022/03/08 10:18:40;;;;;;;6.57;3.00;;;14.60;42.20;;;;;;5055132;28;20476;-66
2022/03/08 10:21:34;;;;;;;2.90;2.53;;;14.40;42.30;;;;;;5055262;28;20406;-65
2022/03/08 10:24:25;;;;;;;2.53;2.33;;;14.30;42.60;;;;;;5054580;28;20408;-66
2022/03/08 10:26:59;;;;;;;3.80;3.10;;;14.30;42.70;;;;;;5055149;28;20415;-66
2022/03/08 10:29:34;;;;;;;2.93;2.57;;;14.20;42.40;;;;;;5054921;28;20392;-65
2022/03/08 10:32:05;;;;;;;2.93;2.70;;;14.00;42.50;;;;;;5055288;28;20443;-65
2022/03/08 10:34:31;;;;;;;3.27;2.53;;;13.90;42.10;;;;;;5054424;28;20420;-64
2022/03/08 10:37:14;;;;;;;2.23;2.00;;;13.90;42.40;;;;;;5054608;28;20426;-64
2022/03/08 10:40:04;;;;;;;2.83;2.63;;;14.00;42.50;;;;;;5036798;28;21018;-65
2022/03/08 10:42:38;;;;;;;3.40;3.10;;;14.00;42.50;;;;;;5054632;28;20409;-64
2022/03/08 10:45:13;;;;;;;3.30;2.50;;;13.90;42.30;;;;;;5054244;28;20456;-65
2022/03/08 10:47:47;;;;;;;3.30;3.00;;;13.80;42.70;;;;;;5054707;28;20397;-65
2022/03/08 10:50:15;;;;;;;2.50;2.30;;;13.60;42.80;;;;;;5054519;28;20929;-65
2022/03/08 10:52:43;;;;;;;2.87;2.67;;;13.60;42.40;;;;;;5054482;28;20435;-65
2022/03/08 10:55:22;;;;;;;2.77;2.57;;;13.70;42.10;;;;;;5054270;28;20444;-64
2022/03/08 10:57:53;;;;;;;3.40;3.10;;;13.70;41.80;;;;;;5054152;28;20401;-64
2022/03/08 11:00:23;;;;;;;4.10;3.30;;;13.80;41.90;;;;;;5054612;28;20431;-60
2022/03/08 11:03:00;;;;;;;2.87;2.53;;;13.70;41.50;;;;;;5054443;28;20424;-64
2022/03/08 11:05:30;;;;;;;2.77;2.40;;;13.60;41.60;;;;;;5053789;28;20872;-65
2022/03/08 11:07:57;;;;;;;3.13;2.83;;;13.40;41.40;;;;;;5054444;28;20404;-66
2022/03/08 11:10:24;;;;;;;3.77;2.70;;;13.30;41.70;;;;;;5053921;28;20898;-64
2022/03/08 11:12:50;;;;;;;2.67;2.40;;;13.20;41.70;;;;;;5054069;28;20408;-66
2022/03/08 11:15:18;;;;;;;6.77;3.03;;;13.10;41.70;;;;;;5053958;28;20435;-64
2022/03/08 11:17:47;;;;;;;2.67;2.40;;;12.90;42.30;;;;;;5054473;28;20442;-64
2022/03/08 11:20:15;;;;;;;4.47;3.43;;;12.60;41.80;;;;;;5054086;28;20483;-64
2022/03/08 11:22:41;;;;;;;3.47;2.40;;;12.40;41.80;;;;;;5054071;28;20429;-64
2022/03/08 11:25:09;;;;;;;3.23;2.40;;;12.20;42.30;;;;;;5053526;28;20465;-64
2022/03/08 11:27:38;;;;;;;2.17;1.90;;;11.80;42.20;;;;;;5054280;28;20493;-64
2022/03/08 11:30:05;;;;;;;3.03;2.83;;;11.20;42.20;;;;;;5053813;28;20405;-65
2022/03/08 11:32:43;;;;;;;2.95;2.75;;;10.70;43.20;;;;;;5036020;28;20188;-64
2022/03/08 11:35:27;;;;;;;2.70;2.50;;;10.10;43.60;;;;;;5053471;28;20263;-66
2022/03/08 11:37:53;;;;;;;6.47;3.47;;;9.70;45.30;;;;;;5053661;28;20166;-65
2022/03/08 11:40:21;;;;;;;2.22;1.80;;;9.40;45.40;;;;;;5053863;28;20507;-65
2022/03/08 11:42:52;;;;;;;2.53;2.25;;;9.30;45.40;;;;;;5053573;28;20172;-66
2022/03/08 11:45:21;;;;;;;3.70;2.15;;;9.10;45.30;;;;;;5053334;28;20207;-65
2022/03/08 11:47:58;;;;;;;2.83;2.50;;;9.00;45.50;;;;;;5053441;28;20174;-66
2022/03/08 11:50:39;;;;;;;4.15;3.00;;;8.90;46.10;;;;;;5053820;28;20169;-65
2022/03/08 11:53:09;;;;;;;3.60;2.70;;;8.90;46.30;;;;;;5053582;28;20256;-65
2022/03/08 11:55:39;;;;;;;4.70;2.80;;;8.90;46.50;;;;;;5053401;28;20241;-65
2022/03/08 11:58:08;;;;;;;3.60;2.90;;;8.80;46.40;;;;;;5053008;28;20186;-65
2022/03/08 12:00:49;;;;;;;2.63;2.42;;;8.90;46.60;;;;;;5053530;28;20179;-64
2022/03/08 12:03:34;;;;;;;2.15;1.95;;;8.90;46.10;;;;;;5052822;28;20554;-65
2022/03/08 12:06:07;;;;;;;2.50;2.33;;;8.80;46.20;;;;;;5053168;28;20216;-64
2022/03/08 12:08:44;;;;;;;3.72;2.97;;;8.80;46.10;;;;;;5052520;28;20227;-65
2022/03/08 12:11:26;;;;;;;6.93;2.30;;;8.70;46.30;;;;;;5053395;28;20710;-64
2022/03/08 12:14:06;;;;;;;4.53;3.22;;;8.70;47.30;;;;;;5053085;28;20566;-65
2022/03/08 12:16:32;;;;;;;3.85;3.45;;;8.80;46.70;;;;;;5053560;28;20165;-66
2022/03/08 12:19:00;;;;;;;2.47;2.28;;;8.80;47.00;;;;;;5053451;28;20204;-65
2022/03/08 12:21:27;;;;;;;2.08;1.98;;;8.90;47.10;;;;;;5053311;28;20170;-66
2022/03/08 12:23:57;;;;;;;2.33;1.75;;;8.90;47.40;;;;;;5052829;28;20251;-65
2022/03/08 12:26:46;;;;;;;2.75;2.55;;;8.90;47.50;;;;;;5053252;28;20203;-64
2022/03/08 12:29:36;;;;;;;2.65;2.45;;;8.90;47.70;;;;;;5051778;28;20203;-66
2022/03/08 12:32:04;;;;;;;4.35;2.72;;;9.00;47.60;;;;;;5053174;28;20167;-65
2022/03/08 12:34:42;;;;;;;2.75;2.55;;;9.10;47.40;;;;;;5052776;28;20283;-63
2022/03/08 12:37:35;;;;;;;2.58;2.35;;;9.10;47.40;;;;;;5053420;28;20186;-65
2022/03/08 12:40:22;;;;;;;2.63;2.42;;;9.10;47.90;;;;;;5053134;28;20505;-66
2022/03/08 12:42:58;;;;;;;2.22;2.03;;;9.20;47.90;;;;;;5052976;28;20165;-67
2022/03/08 12:45:25;;;;;;;2.05;1.92;;;9.20;47.80;;;;;;5052447;28;20201;-65
2022/03/08 12:48:02;;;;;;;4.85;3.22;;;9.20;47.50;;;;;;5053091;28;20198;-65
2022/03/08 12:50:32;;;;;;;3.63;2.38;;;9.20;48.20;;;;;;5052985;28;20173;-65